Airport View

Enter AWOS ICAO identifier for current METAR.

ex. KFNL

KCWV 262355Z AUTO 00000KT 10SM BKN095 10/06 A3004 RMK AO2 T00950062 10170 20095

27 Jan 2020 00:14

Frequency: 120.075

Phone: 912-739-3768

Other Area AWOS: KTBR - KLHW - KVDI - KJYL

TAF KSAV 262338Z 2700/2724 26003KT P6SM BKN090 FM270730 25003KT 6SM -RA FEW020 OVC050 FM271300 24007KT P6SM SCT020 OVC035 FM271700 25010KT P6SM BKN040